createdAt,value
2023-01-01T00:00:34.129Z,100168.78
2023-01-01T00:05:38.763Z,100178.19
2023-01-01T00:10:40.161Z,100181.72
2023-01-01T00:15:41.637Z,100182.53
2023-01-01T00:20:43.057Z,100185.66
2023-01-01T00:25:44.518Z,100186.81
2023-01-01T00:30:45.953Z,100177.63
2023-01-01T00:35:47.417Z,100178.91
2023-01-01T00:40:48.845Z,100183.38
2023-01-01T00:45:52.980Z,100183.81
2023-01-01T00:50:54.730Z,100188.06
2023-01-01T00:55:56.577Z,100189.91
2023-01-01T01:00:58.211Z,100202.38
2023-01-01T01:06:10.417Z,100208.25
2023-01-01T01:11:15.287Z,100204.97
2023-01-01T01:16:24.006Z,100213.97
2023-01-01T01:21:27.034Z,100218.53
2023-01-01T01:26:31.546Z,100224.97
2023-01-01T01:31:34.525Z,100222.41
2023-01-01T01:36:36.004Z,100231.56
2023-01-01T01:41:37.647Z,100241.13
2023-01-01T01:46:44.513Z,100231.28
2023-01-01T01:51:46.415Z,100233.25
2023-01-01T01:56:53.761Z,100246.56
2023-01-01T02:01:55.823Z,100246.41
2023-01-01T02:06:57.423Z,100236.69
2023-01-01T02:11:59.346Z,100245.53
2023-01-01T02:17:08.667Z,100255.28
2023-01-01T02:22:28.091Z,100240.81
2023-01-01T02:28:21.020Z,100240.38
2023-01-01T02:33:25.756Z,100246.63
2023-01-01T02:38:41.246Z,100245.38
2023-01-01T02:43:43.093Z,100248.31
2023-01-01T02:48:50.493Z,100247.72
2023-01-01T02:53:57.805Z,100247.44
2023-01-01T02:59:45.478Z,100253.13
2023-01-01T03:05:02.914Z,100255.13
2023-01-01T03:10:04.395Z,100256.09
2023-01-01T03:15:25.144Z,100258.22
2023-01-01T03:20:31.567Z,100255.41
2023-01-01T03:25:40.315Z,100259.66
2023-01-01T03:30:45.636Z,100258.81
2023-01-01T03:35:53.899Z,100272.03
2023-01-01T03:41:01.281Z,100279.22
2023-01-01T03:46:05.377Z,100274.91
2023-01-01T03:51:26.935Z,100287.81
2023-01-01T03:56:41.033Z,100283.22
2023-01-01T04:01:51.386Z,100298.16
2023-01-01T04:06:53.921Z,100303.00
2023-01-01T04:12:06.700Z,100301.72
2023-01-01T04:17:10.220Z,100299.00
2023-01-01T04:22:11.658Z,100304.44
2023-01-01T04:27:13.139Z,100300.75
2023-01-01T04:32:14.723Z,100311.31
2023-01-01T04:37:16.195Z,100305.88
2023-01-01T04:42:17.652Z,100318.47
2023-01-01T04:47:19.078Z,100321.75
2023-01-01T04:52:20.771Z,100337.75
2023-01-01T04:57:22.204Z,100340.19
2023-01-01T05:02:23.963Z,100340.19
2023-01-01T05:07:25.439Z,100344.22
2023-01-01T05:12:27.002Z,100337.31
2023-01-01T05:17:28.805Z,100354.63
2023-01-01T05:22:30.212Z,100351.06
2023-01-01T05:27:31.634Z,100349.91
2023-01-01T05:32:33.293Z,100351.06
2023-01-01T05:37:35.176Z,100355.19
2023-01-01T05:42:36.604Z,100359.06
2023-01-01T05:47:38.034Z,100369.34
2023-01-01T05:52:39.624Z,100359.22
2023-01-01T05:57:41.051Z,100366.22
2023-01-01T06:02:42.510Z,100363.06
2023-01-01T06:07:48.434Z,100362.19
2023-01-01T06:12:50.261Z,100358.53
2023-01-01T06:17:51.836Z,100356.94
2023-01-01T06:22:53.237Z,100362.63
2023-01-01T06:27:54.658Z,100361.13
2023-01-01T06:32:56.076Z,100358.38
2023-01-01T06:38:00.402Z,100361.38
2023-01-01T06:43:01.857Z,100364.84
2023-01-01T06:48:03.419Z,100362.28
2023-01-01T06:53:04.831Z,100365.06
2023-01-01T06:58:09.810Z,100360.69
2023-01-01T07:03:11.475Z,100369.97
2023-01-01T07:08:13.063Z,100384.72
2023-01-01T07:13:14.473Z,100393.44
2023-01-01T07:18:15.917Z,100388.56
2023-01-01T07:23:17.364Z,100402.81
2023-01-01T07:28:19.640Z,100399.16
2023-01-01T07:33:23.349Z,100402.13
2023-01-01T07:38:24.776Z,100411.69
2023-01-01T07:43:26.188Z,100413.88
2023-01-01T07:48:28.193Z,100422.63
2023-01-01T07:53:29.635Z,100422.97
2023-01-01T07:58:31.093Z,100420.72
2023-01-01T08:03:32.511Z,100423.97
2023-01-01T08:08:33.978Z,100414.28
2023-01-01T08:13:35.671Z,100419.16
2023-01-01T08:18:37.461Z,100414.88
2023-01-01T08:23:38.908Z,100410.59
2023-01-01T08:28:40.358Z,100422.31
2023-01-01T08:33:41.768Z,100426.03
2023-01-01T08:38:43.763Z,100436.63
2023-01-01T08:43:45.191Z,100433.47
2023-01-01T08:48:46.602Z,100431.31
2023-01-01T08:53:51.342Z,100442.63
2023-01-01T08:58:55.146Z,100462.66
2023-01-01T09:03:58.934Z,100470.97
2023-01-01T09:09:00.348Z,100468.34
2023-01-01T09:14:01.805Z,100477.47
2023-01-01T09:19:03.273Z,100464.25
2023-01-01T09:24:04.957Z,100469.00
2023-01-01T09:29:06.361Z,100456.47
2023-01-01T09:34:07.764Z,100460.19
2023-01-01T09:39:12.362Z,100454.22
2023-01-01T09:44:44.650Z,100447.06
2023-01-01T09:49:49.242Z,100443.31
2023-01-01T09:54:57.209Z,100438.59
2023-01-01T09:59:59.588Z,100437.28
2023-01-01T10:05:44.751Z,100431.53
2023-01-01T10:11:14.104Z,100430.19
2023-01-01T10:16:24.058Z,100443.03
2023-01-01T10:21:33.987Z,100456.19
2023-01-01T10:26:37.658Z,100464.84
2023-01-01T10:31:42.577Z,100466.94
2023-01-01T10:36:44.777Z,100466.94
2023-01-01T10:41:48.485Z,100473.84
2023-01-01T10:46:56.623Z,100476.28
2023-01-01T10:51:59.284Z,100484.59
2023-01-01T10:57:14.150Z,100476.69
2023-01-01T11:02:24.726Z,100448.59
2023-01-01T11:07:33.945Z,100455.22
2023-01-01T11:18:28.229Z,100462.41
2023-01-01T11:23:36.151Z,100453.06
2023-01-01T11:28:37.709Z,100455.84
2023-01-01T11:33:45.392Z,100443.22
2023-01-01T11:39:02.927Z,100440.91
2023-01-01T11:44:04.938Z,100439.16
2023-01-01T11:49:15.229Z,100449.88
2023-01-01T11:54:36.121Z,100461.00
2023-01-01T11:59:51.051Z,100443.75
2023-01-01T12:05:06.203Z,100455.69
2023-01-01T12:10:23.272Z,100455.34
2023-01-01T12:15:31.616Z,100462.72
2023-01-01T12:20:52.945Z,100461.00
2023-01-01T12:26:19.429Z,100453.28
2023-01-01T12:31:43.939Z,100446.88
2023-01-01T12:37:06.173Z,100443.84
2023-01-01T12:42:32.755Z,100447.66
2023-01-01T12:47:34.108Z,100452.34
2023-01-01T12:52:49.532Z,100438.16
2023-01-01T12:58:27.160Z,100442.28
2023-01-01T13:03:35.199Z,100445.84
2023-01-01T13:08:37.945Z,100451.50
2023-01-01T13:13:39.570Z,100466.22
2023-01-01T13:18:41.080Z,100471.38
2023-01-01T13:23:47.572Z,100474.56
2023-01-01T13:28:57.901Z,100475.56
2023-01-01T13:34:30.380Z,100480.19
2023-01-01T13:39:50.448Z,100481.44
2023-01-01T13:44:51.978Z,100490.84
2023-01-01T13:50:10.143Z,100490.53
2023-01-01T13:55:43.478Z,100493.22
2023-01-01T14:01:14.688Z,100509.97
2023-01-01T14:06:28.005Z,100501.81
2023-01-01T14:11:29.571Z,100507.47
2023-01-01T14:16:31.187Z,100508.28
2023-01-01T14:21:34.322Z,100503.41
2023-01-01T14:26:38.769Z,100510.94
2023-01-01T14:31:43.815Z,100510.16
2023-01-01T14:36:54.235Z,100503.44
2023-01-01T14:42:00.177Z,100512.41
2023-01-01T14:47:03.261Z,100517.03
2023-01-01T14:52:13.198Z,100525.69
2023-01-01T14:57:20.464Z,100536.00
2023-01-01T15:02:30.523Z,100534.81
2023-01-01T15:07:32.169Z,100550.69
2023-01-01T15:12:34.797Z,100548.88
2023-01-01T15:17:47.494Z,100552.56
2023-01-01T15:22:50.359Z,100562.00
2023-01-01T15:27:54.477Z,100573.16
2023-01-01T15:32:56.568Z,100573.16
2023-01-01T15:38:17.830Z,100573.16
2023-01-01T15:43:25.436Z,100583.41
2023-01-01T15:48:34.928Z,100580.56
2023-01-01T15:53:58.284Z,100588.28
2023-01-01T15:59:31.324Z,100590.56
2023-01-01T16:04:32.857Z,100597.19
2023-01-01T16:09:36.004Z,100608.03
2023-01-01T16:14:37.481Z,100618.66
2023-01-01T16:19:39.057Z,100617.63
2023-01-01T16:24:40.486Z,100615.47
2023-01-01T16:29:43.562Z,100621.34
2023-01-01T16:34:45.347Z,100618.19
2023-01-01T16:39:46.775Z,100621.03
2023-01-01T16:44:48.269Z,100622.53
2023-01-01T16:49:49.685Z,100621.09
2023-01-01T16:54:51.089Z,100625.38
2023-01-01T16:59:52.559Z,100631.63
2023-01-01T17:04:53.982Z,100638.22
2023-01-01T17:09:55.441Z,100641.94
2023-01-01T17:14:56.855Z,100646.72
2023-01-01T17:19:58.292Z,100632.06
2023-01-01T17:24:59.717Z,100642.00
2023-01-01T17:30:01.195Z,100654.53
2023-01-01T17:35:03.958Z,100659.50
2023-01-01T17:40:06.006Z,100662.63
2023-01-01T17:45:08.448Z,100655.97
2023-01-01T17:50:09.981Z,100660.19
2023-01-01T17:55:11.413Z,100655.03
2023-01-01T18:00:13.275Z,100655.56
2023-01-01T18:05:14.716Z,100654.63
2023-01-01T18:10:16.293Z,100656.00
2023-01-01T18:15:17.719Z,100649.72
2023-01-01T18:20:19.166Z,100658.13
2023-01-01T18:25:20.636Z,100656.16
2023-01-01T18:30:22.636Z,100667.66
2023-01-01T18:35:24.091Z,100659.91
2023-01-01T18:40:27.220Z,100663.84
2023-01-01T18:45:28.670Z,100663.50
2023-01-01T18:50:31.999Z,100674.63
2023-01-01T18:55:33.424Z,100669.09
2023-01-01T19:00:37.163Z,100670.13
2023-01-01T19:05:38.715Z,100680.00
2023-01-01T19:10:44.067Z,100687.03
2023-01-01T19:15:51.870Z,100682.38
2023-01-01T19:21:02.417Z,100691.00
2023-01-01T19:26:06.001Z,100697.78
2023-01-01T19:31:09.495Z,100691.09
2023-01-01T19:36:10.989Z,100692.81
2023-01-01T19:41:12.527Z,100699.09
2023-01-01T19:46:14.119Z,100703.91
2023-01-01T19:51:15.816Z,100695.50
2023-01-01T19:56:18.116Z,100689.13
2023-01-01T20:01:19.932Z,100688.22
2023-01-01T20:06:21.497Z,100688.81
2023-01-01T20:11:23.304Z,100696.22
2023-01-01T20:16:24.906Z,100694.22
2023-01-01T20:21:44.914Z,100702.59
2023-01-01T20:26:46.345Z,100698.13
2023-01-01T20:31:52.891Z,100701.06
2023-01-01T20:37:13.002Z,100694.94
2023-01-01T20:42:14.441Z,100696.13
2023-01-01T20:47:15.858Z,100700.28
2023-01-01T20:52:17.423Z,100700.69
2023-01-01T20:57:18.861Z,100696.59
2023-01-01T21:02:20.476Z,100705.56
2023-01-01T21:07:23.377Z,100711.31
2023-01-01T21:12:24.816Z,100709.69
2023-01-01T21:17:27.829Z,100701.06
2023-01-01T21:22:29.305Z,100717.13
2023-01-01T21:27:33.846Z,100699.84
2023-01-01T21:32:44.754Z,100701.19
2023-01-01T21:37:50.009Z,100688.81
2023-01-01T21:42:58.314Z,100702.94
2023-01-01T21:48:14.370Z,100699.78
2023-01-01T21:53:24.209Z,100692.13
2023-01-01T21:58:50.517Z,100710.34
2023-01-01T22:03:59.844Z,100709.53
2023-01-01T22:09:02.245Z,100710.56
2023-01-01T22:14:12.786Z,100711.06
2023-01-01T22:19:19.390Z,100717.13
2023-01-01T22:24:35.409Z,100723.03
2023-01-01T22:29:36.861Z,100726.13
2023-01-01T22:34:38.314Z,100711.44
2023-01-01T22:39:39.768Z,100711.34
2023-01-01T22:44:41.450Z,100687.25
2023-01-01T22:49:47.105Z,100676.19
2023-01-01T22:54:48.572Z,100676.81
2023-01-01T22:59:50.071Z,100663.13
2023-01-01T23:04:51.480Z,100669.19
2023-01-01T23:09:53.147Z,100658.78
2023-01-01T23:15:14.308Z,100667.03
2023-01-01T23:20:15.788Z,100654.69
2023-01-01T23:25:19.551Z,100652.00
2023-01-01T23:30:21.182Z,100629.31
2023-01-01T23:35:22.649Z,100621.91
2023-01-01T23:40:24.115Z,100626.81
2023-01-01T23:45:25.719Z,100619.22
2023-01-01T23:50:27.153Z,100627.13
2023-01-01T23:55:28.622Z,100622.69
